Airfield :
LOGIN :

Register | Disclaimer

   EN    FR    IT 

 










Legend :    VFR   Marginal VFR   IFR   Intensive IFR   Very Intensive IFR
Visi :
Ceiling :
>= 8 km
>= 3000ft
5 to 8 km
1000 to 3000 ft
1500m to 5 km
500 to 1000 ft
800 to 1500m
200 to 500 ft
< 800m
< 200 ft
Symbols :   Thunderstorms  Fog  Heavy snow  Heavy precipitations  Wind > 20 kt
SIGMETs :     Misc.  Thunderstorms  Icing  Turbulence  Mountain Waves  Volcanic Ashes







- Airport Elevation : 72 ft
- IATA code : UDE


EHVK - Volkel Airbase

CURRENT METAR :
  • 131525Z AUTO 23010KT 9999 SCT036 12/08 Q1024 BLU

EXPIRED METARs :
  • 131455Z AUTO 23012KT 9999 FEW030 BKN034 BKN040 12/08 Q1024 BLU
  • 131425Z AUTO 23014KT 9999 FEW034 BKN038 BKN043 13/08 Q1024 BLU
  • 131355Z AUTO 23015KT 9999 FEW025 SCT030 13/08 Q1023 BLU
  • 131326Z AUTO 23017KT 200V260 9999 SCT025 BKN029 BKN033 13/08 Q1023 BLU
  • 131310Z AUTO 23016KT 9999 SCT024 BKN027 BKN033 12/08 Q1023 WHT
  • 131255Z AUTO 23015KT 9999 SCT024 BKN027 BKN033 12/08 Q1023 WHT

Expired Forecast.
No reported NOTAMs for that airfield.



MET'MAP, your aeronautical weather chart ! - Copyright ORBIFLY December 2007 - Disclaimer

ORBIFLY MET'MAP TEAM :

Programming & Development : Alexandra Zaïnal
Concept & Development : Baudouin d'Aumeries
Co-Development & Prog : Marc-Olivier Méhu
Technical & hardware support : Manuel Goepfert

Contact : metmap@orbifly.com




SOURCES & CREDITS :

   NOAA